Anstey, United Kingdom
Current Conditions -  °F | °C
As of 4:50 AM on Saturday 25 Oct 2014 (Local Time) from EGNX Reporting Station
Clear Clear  
Wind Chill: 41°   Ceiling: Unl
Heat Index: 46°   Visibility: 6mi
Dew Point: 45°   Wind: 13mph
Humidity: 93%   Direction: 210°SSW
Pressure: 29.94"   Gusts: NA
Location:  52.65°N, 1.18°W
Report Text: EGNX 250350Z 21011KT CAVOK 08/07 Q1014
Loading
Personal Weather Stations






























Interactive Weather Map
Tropical Storm Tracking
New forecast layout! Learn more

10-Day Weather Forecast

Advertisements
Track Severe Weather on mobile